sensor_id;sensor_type;location;lat;lon;timestamp;temperature;humidity
14473;DHT22;7322;50.872;4.386;2023-07-31T00:02:36;23.60;99.90
14473;DHT22;7322;50.872;4.386;2023-07-31T00:05:12;23.60;99.90
14473;DHT22;7322;50.872;4.386;2023-07-31T00:07:40;23.60;99.90
14473;DHT22;7322;50.872;4.386;2023-07-31T00:10:10;23.60;99.90
14473;DHT22;7322;50.872;4.386;2023-07-31T00:12:43;23.60;99.90
14473;DHT22;7322;50.872;4.386;2023-07-31T00:15:10;23.70;99.90
14473;DHT22;7322;50.872;4.386;2023-07-31T00:17:50;23.70;99.90
14473;DHT22;7322;50.872;4.386;2023-07-31T00:20:17;23.80;99.90
14473;DHT22;7322;50.872;4.386;2023-07-31T00:22:46;23.80;99.90
14473;DHT22;7322;50.872;4.386;2023-07-31T00:25:19;23.80;99.90
14473;DHT22;7322;50.872;4.386;2023-07-31T00:28:05;23.80;99.90
14473;DHT22;7322;50.872;4.386;2023-07-31T00:30:47;23.70;99.90
14473;DHT22;7322;50.872;4.386;2023-07-31T00:33:18;23.70;99.90
14473;DHT22;7322;50.872;4.386;2023-07-31T00:35:52;23.70;99.90
14473;DHT22;7322;50.872;4.386;2023-07-31T00:38:18;23.80;99.90
14473;DHT22;7322;50.872;4.386;2023-07-31T00:40:49;23.80;99.90
14473;DHT22;7322;50.872;4.386;2023-07-31T00:43:25;23.70;99.90
14473;DHT22;7322;50.872;4.386;2023-07-31T00:46:10;23.80;99.90
14473;DHT22;7322;50.872;4.386;2023-07-31T00:48:40;23.70;99.90
14473;DHT22;7322;50.872;4.386;2023-07-31T00:51:40;23.70;99.90
14473;DHT22;7322;50.872;4.386;2023-07-31T00:54:08;23.70;99.90
14473;DHT22;7322;50.872;4.386;2023-07-31T00:56:42;23.70;99.90
14473;DHT22;7322;50.872;4.386;2023-07-31T00:59:26;23.70;99.90
14473;DHT22;7322;50.872;4.386;2023-07-31T01:01:53;23.80;99.90
14473;DHT22;7322;50.872;4.386;2023-07-31T01:04:24;23.70;99.90
14473;DHT22;7322;50.872;4.386;2023-07-31T01:06:59;23.70;99.90
14473;DHT22;7322;50.872;4.386;2023-07-31T01:09:40;23.80;99.90
14473;DHT22;7322;50.872;4.386;2023-07-31T01:12:15;23.70;99.90
14473;DHT22;7322;50.872;4.386;2023-07-31T01:14:52;23.70;99.90
14473;DHT22;7322;50.872;4.386;2023-07-31T01:17:42;23.70;99.90
14473;DHT22;7322;50.872;4.386;2023-07-31T01:20:12;23.70;99.90
14473;DHT22;7322;50.872;4.386;2023-07-31T01:22:59;23.70;99.90
14473;DHT22;7322;50.872;4.386;2023-07-31T01:25:59;23.70;99.90
14473;DHT22;7322;50.872;4.386;2023-07-31T01:29:00;23.70;99.90
14473;DHT22;7322;50.872;4.386;2023-07-31T01:31:42;23.80;99.90
14473;DHT22;7322;50.872;4.386;2023-07-31T01:34:10;23.70;99.90
14473;DHT22;7322;50.872;4.386;2023-07-31T01:36:40;23.70;99.90
14473;DHT22;7322;50.872;4.386;2023-07-31T01:39:07;23.70;99.90
14473;DHT22;7322;50.872;4.386;2023-07-31T01:41:35;23.60;99.90
14473;DHT22;7322;50.872;4.386;2023-07-31T01:44:07;23.70;99.90
14473;DHT22;7322;50.872;4.386;2023-07-31T01:46:34;23.70;99.90
14473;DHT22;7322;50.872;4.386;2023-07-31T01:49:08;23.60;99.90
14473;DHT22;7322;50.872;4.386;2023-07-31T01:51:41;23.80;99.90
14473;DHT22;7322;50.872;4.386;2023-07-31T01:54:10;23.80;99.90
14473;DHT22;7322;50.872;4.386;2023-07-31T01:56:40;23.70;99.90
14473;DHT22;7322;50.872;4.386;2023-07-31T01:59:14;23.70;99.90
14473;DHT22;7322;50.872;4.386;2023-07-31T02:01:57;23.80;99.90
14473;DHT22;7322;50.872;4.386;2023-07-31T02:04:29;23.80;99.90
14473;DHT22;7322;50.872;4.386;2023-07-31T02:07:20;23.80;99.90
14473;DHT22;7322;50.872;4.386;2023-07-31T02:09:53;23.80;99.90
14473;DHT22;7322;50.872;4.386;2023-07-31T02:12:29;23.70;99.90
14473;DHT22;7322;50.872;4.386;2023-07-31T02:14:57;23.70;99.90
14473;DHT22;7322;50.872;4.386;2023-07-31T02:17:31;23.70;99.90
14473;DHT22;7322;50.872;4.386;2023-07-31T02:20:08;23.70;99.90
14473;DHT22;7322;50.872;4.386;2023-07-31T02:22:40;23.70;99.90
14473;DHT22;7322;50.872;4.386;2023-07-31T02:25:13;23.70;99.90
14473;DHT22;7322;50.872;4.386;2023-07-31T02:27:41;23.70;99.90
14473;DHT22;7322;50.872;4.386;2023-07-31T02:30:11;23.70;99.90
14473;DHT22;7322;50.872;4.386;2023-07-31T02:32:40;23.60;99.90
14473;DHT22;7322;50.872;4.386;2023-07-31T02:35:14;23.70;99.90
14473;DHT22;7322;50.872;4.386;2023-07-31T02:37:48;23.80;99.90
14473;DHT22;7322;50.872;4.386;2023-07-31T02:40:38;23.80;99.90
14473;DHT22;7322;50.872;4.386;2023-07-31T02:43:09;23.70;99.90
14473;DHT22;7322;50.872;4.386;2023-07-31T02:45:36;23.80;99.90
14473;DHT22;7322;50.872;4.386;2023-07-31T02:48:09;23.80;99.90
14473;DHT22;7322;50.872;4.386;2023-07-31T02:51:00;23.80;99.90
14473;DHT22;7322;50.872;4.386;2023-07-31T02:53:40;23.90;99.90
14473;DHT22;7322;50.872;4.386;2023-07-31T02:56:20;23.80;99.90
14473;DHT22;7322;50.872;4.386;2023-07-31T02:58:50;23.90;99.90
14473;DHT22;7322;50.872;4.386;2023-07-31T03:01:17;23.80;99.90
14473;DHT22;7322;50.872;4.386;2023-07-31T03:03:45;23.80;99.90
14473;DHT22;7322;50.872;4.386;2023-07-31T03:06:19;23.90;99.90
14473;DHT22;7322;50.872;4.386;2023-07-31T03:08:46;23.80;99.90
14473;DHT22;7322;50.872;4.386;2023-07-31T03:11:17;23.80;99.90
14473;DHT22;7322;50.872;4.386;2023-07-31T03:13:56;23.80;99.90
14473;DHT22;7322;50.872;4.386;2023-07-31T03:16:40;23.80;99.90
14473;DHT22;7322;50.872;4.386;2023-07-31T03:19:20;23.70;99.90
14473;DHT22;7322;50.872;4.386;2023-07-31T03:22:10;23.80;99.90
14473;DHT22;7322;50.872;4.386;2023-07-31T03:24:40;23.70;99.90
14473;DHT22;7322;50.872;4.386;2023-07-31T03:27:09;23.70;99.90
14473;DHT22;7322;50.872;4.386;2023-07-31T03:29:38;23.70;99.90
14473;DHT22;7322;50.872;4.386;2023-07-31T03:32:15;23.80;99.90
14473;DHT22;7322;50.872;4.386;2023-07-31T03:35:13;23.70;99.90
14473;DHT22;7322;50.872;4.386;2023-07-31T03:38:03;23.70;99.90
14473;DHT22;7322;50.872;4.386;2023-07-31T03:40:43;23.60;99.90
14473;DHT22;7322;50.872;4.386;2023-07-31T03:43:16;23.60;99.90
14473;DHT22;7322;50.872;4.386;2023-07-31T03:45:53;23.60;99.90
14473;DHT22;7322;50.872;4.386;2023-07-31T03:48:40;23.60;99.90
14473;DHT22;7322;50.872;4.386;2023-07-31T03:51:21;23.80;99.90
14473;DHT22;7322;50.872;4.386;2023-07-31T03:53:51;23.80;99.90
14473;DHT22;7322;50.872;4.386;2023-07-31T03:56:28;23.70;99.90
14473;DHT22;7322;50.872;4.386;2023-07-31T03:59:06;23.80;99.90
14473;DHT22;7322;50.872;4.386;2023-07-31T04:01:42;23.70;99.90
14473;DHT22;7322;50.872;4.386;2023-07-31T04:04:10;23.60;99.90
14473;DHT22;7322;50.872;4.386;2023-07-31T04:06:38;23.70;99.90
14473;DHT22;7322;50.872;4.386;2023-07-31T04:09:17;23.80;99.90
14473;DHT22;7322;50.872;4.386;2023-07-31T04:11:54;23.80;99.90
14473;DHT22;7322;50.872;4.386;2023-07-31T04:14:29;23.80;99.90
14473;DHT22;7322;50.872;4.386;2023-07-31T04:17:12;23.60;99.90
14473;DHT22;7322;50.872;4.386;2023-07-31T04:19:40;23.70;99.90
14473;DHT22;7322;50.872;4.386;2023-07-31T04:25:20;23.60;99.90
14473;DHT22;7322;50.872;4.386;2023-07-31T04:31:10;23.50;99.90
14473;DHT22;7322;50.872;4.386;2023-07-31T04:33:38;23.40;99.90
14473;DHT22;7322;50.872;4.386;2023-07-31T04:36:15;23.40;99.90
14473;DHT22;7322;50.872;4.386;2023-07-31T04:38:51;23.40;99.90
14473;DHT22;7322;50.872;4.386;2023-07-31T04:41:26;23.40;99.90
14473;DHT22;7322;50.872;4.386;2023-07-31T04:43:55;23.50;99.90
14473;DHT22;7322;50.872;4.386;2023-07-31T04:46:24;23.50;99.90
14473;DHT22;7322;50.872;4.386;2023-07-31T04:48:54;23.60;99.90
14473;DHT22;7322;50.872;4.386;2023-07-31T04:54:47;23.60;99.90
14473;DHT22;7322;50.872;4.386;2023-07-31T04:57:21;23.60;99.90
14473;DHT22;7322;50.872;4.386;2023-07-31T04:59:49;23.50;99.90
14473;DHT22;7322;50.872;4.386;2023-07-31T05:02:19;23.50;99.90
14473;DHT22;7322;50.872;4.386;2023-07-31T05:04:55;23.50;99.90
14473;DHT22;7322;50.872;4.386;2023-07-31T05:07:28;23.60;99.90
14473;DHT22;7322;50.872;4.386;2023-07-31T05:10:07;23.60;99.90
14473;DHT22;7322;50.872;4.386;2023-07-31T05:12:36;23.50;99.90
14473;DHT22;7322;50.872;4.386;2023-07-31T05:15:03;23.50;99.90
14473;DHT22;7322;50.872;4.386;2023-07-31T05:17:46;23.50;99.90
14473;DHT22;7322;50.872;4.386;2023-07-31T05:20:16;23.50;99.90
14473;DHT22;7322;50.872;4.386;2023-07-31T05:23:12;23.50;99.90
14473;DHT22;7322;50.872;4.386;2023-07-31T05:25:40;23.70;99.90
14473;DHT22;7322;50.872;4.386;2023-07-31T05:28:17;23.70;99.90
14473;DHT22;7322;50.872;4.386;2023-07-31T05:30:59;23.70;99.90
14473;DHT22;7322;50.872;4.386;2023-07-31T05:33:36;23.70;99.90
14473;DHT22;7322;50.872;4.386;2023-07-31T05:36:05;23.70;99.90
14473;DHT22;7322;50.872;4.386;2023-07-31T05:38:33;23.60;99.90
14473;DHT22;7322;50.872;4.386;2023-07-31T05:41:03;23.60;99.90
14473;DHT22;7322;50.872;4.386;2023-07-31T05:43:58;23.80;99.90
14473;DHT22;7322;50.872;4.386;2023-07-31T05:46:29;23.80;99.90
14473;DHT22;7322;50.872;4.386;2023-07-31T05:48:58;23.80;99.90
14473;DHT22;7322;50.872;4.386;2023-07-31T05:51:41;23.80;99.90
14473;DHT22;7322;50.872;4.386;2023-07-31T05:54:11;23.80;99.90
14473;DHT22;7322;50.872;4.386;2023-07-31T05:56:39;23.80;99.90
14473;DHT22;7322;50.872;4.386;2023-07-31T05:59:14;23.90;99.90
14473;DHT22;7322;50.872;4.386;2023-07-31T06:02:18;23.90;99.90
14473;DHT22;7322;50.872;4.386;2023-07-31T06:04:51;24.00;99.90
14473;DHT22;7322;50.872;4.386;2023-07-31T06:07:46;24.00;99.90
14473;DHT22;7322;50.872;4.386;2023-07-31T06:10:15;24.00;99.90
14473;DHT22;7322;50.872;4.386;2023-07-31T06:12:44;23.80;99.90
14473;DHT22;7322;50.872;4.386;2023-07-31T06:15:17;23.80;99.90
14473;DHT22;7322;50.872;4.386;2023-07-31T06:18:04;23.80;99.90
14473;DHT22;7322;50.872;4.386;2023-07-31T06:20:40;23.80;99.90
14473;DHT22;7322;50.872;4.386;2023-07-31T06:23:09;23.80;99.90
14473;DHT22;7322;50.872;4.386;2023-07-31T06:25:38;23.70;99.90
14473;DHT22;7322;50.872;4.386;2023-07-31T06:28:05;23.80;99.90
14473;DHT22;7322;50.872;4.386;2023-07-31T06:30:32;23.70;99.90
14473;DHT22;7322;50.872;4.386;2023-07-31T06:33:02;23.70;99.90
14473;DHT22;7322;50.872;4.386;2023-07-31T06:35:31;23.70;99.90
14473;DHT22;7322;50.872;4.386;2023-07-31T06:37:59;23.70;99.90
14473;DHT22;7322;50.872;4.386;2023-07-31T06:40:29;23.80;99.90
14473;DHT22;7322;50.872;4.386;2023-07-31T06:42:58;23.80;99.90
14473;DHT22;7322;50.872;4.386;2023-07-31T06:45:25;23.80;99.90
14473;DHT22;7322;50.872;4.386;2023-07-31T06:47:56;23.80;99.90
14473;DHT22;7322;50.872;4.386;2023-07-31T06:50:27;23.80;99.90
14473;DHT22;7322;50.872;4.386;2023-07-31T06:52:57;23.80;99.90
14473;DHT22;7322;50.872;4.386;2023-07-31T06:55:45;23.70;99.90
14473;DHT22;7322;50.872;4.386;2023-07-31T06:58:14;23.70;99.90
14473;DHT22;7322;50.872;4.386;2023-07-31T07:00:41;23.60;99.90
14473;DHT22;7322;50.872;4.386;2023-07-31T07:03:10;23.50;99.90
14473;DHT22;7322;50.872;4.386;2023-07-31T07:05:40;23.60;99.90
14473;DHT22;7322;50.872;4.386;2023-07-31T07:08:08;23.60;99.90
14473;DHT22;7322;50.872;4.386;2023-07-31T07:10:35;23.70;99.90
14473;DHT22;7322;50.872;4.386;2023-07-31T07:13:05;23.70;99.90
14473;DHT22;7322;50.872;4.386;2023-07-31T07:15:32;23.80;99.90
14473;DHT22;7322;50.872;4.386;2023-07-31T07:18:07;23.80;99.90
14473;DHT22;7322;50.872;4.386;2023-07-31T07:20:40;23.80;99.90
14473;DHT22;7322;50.872;4.386;2023-07-31T07:23:21;23.80;99.90
14473;DHT22;7322;50.872;4.386;2023-07-31T07:25:55;23.80;99.90
14473;DHT22;7322;50.872;4.386;2023-07-31T07:28:38;23.80;99.90
14473;DHT22;7322;50.872;4.386;2023-07-31T07:31:05;23.90;99.90
14473;DHT22;7322;50.872;4.386;2023-07-31T07:33:37;23.80;99.90
14473;DHT22;7322;50.872;4.386;2023-07-31T07:36:05;23.90;99.90
14473;DHT22;7322;50.872;4.386;2023-07-31T07:38:36;23.80;99.90
14473;DHT22;7322;50.872;4.386;2023-07-31T07:41:06;23.80;99.90
14473;DHT22;7322;50.872;4.386;2023-07-31T07:43:41;23.80;99.90
14473;DHT22;7322;50.872;4.386;2023-07-31T07:46:08;23.90;99.90
14473;DHT22;7322;50.872;4.386;2023-07-31T07:48:49;23.80;99.90
14473;DHT22;7322;50.872;4.386;2023-07-31T07:51:16;23.90;99.90
14473;DHT22;7322;50.872;4.386;2023-07-31T07:53:44;23.80;99.90
14473;DHT22;7322;50.872;4.386;2023-07-31T07:56:12;23.80;99.90
14473;DHT22;7322;50.872;4.386;2023-07-31T07:58:42;23.80;99.90
14473;DHT22;7322;50.872;4.386;2023-07-31T08:01:09;23.90;99.90
14473;DHT22;7322;50.872;4.386;2023-07-31T08:03:37;23.80;99.90
14473;DHT22;7322;50.872;4.386;2023-07-31T08:06:05;23.80;99.90
14473;DHT22;7322;50.872;4.386;2023-07-31T08:08:33;23.80;99.90
14473;DHT22;7322;50.872;4.386;2023-07-31T08:11:00;23.80;99.90
14473;DHT22;7322;50.872;4.386;2023-07-31T08:13:33;23.80;99.90
14473;DHT22;7322;50.872;4.386;2023-07-31T08:16:12;23.90;99.90
14473;DHT22;7322;50.872;4.386;2023-07-31T08:18:40;23.90;99.90
14473;DHT22;7322;50.872;4.386;2023-07-31T08:21:10;23.90;99.90
14473;DHT22;7322;50.872;4.386;2023-07-31T08:23:40;24.00;99.90
14473;DHT22;7322;50.872;4.386;2023-07-31T08:26:15;24.00;99.90
14473;DHT22;7322;50.872;4.386;2023-07-31T08:28:42;24.00;99.90
14473;DHT22;7322;50.872;4.386;2023-07-31T08:31:11;24.00;99.90
14473;DHT22;7322;50.872;4.386;2023-07-31T08:33:39;24.00;99.90
14473;DHT22;7322;50.872;4.386;2023-07-31T08:36:15;24.00;99.90
14473;DHT22;7322;50.872;4.386;2023-07-31T08:38:45;24.10;99.90
14473;DHT22;7322;50.872;4.386;2023-07-31T08:41:12;24.00;99.90
14473;DHT22;7322;50.872;4.386;2023-07-31T08:43:39;24.00;99.90
14473;DHT22;7322;50.872;4.386;2023-07-31T08:46:08;24.00;99.90
14473;DHT22;7322;50.872;4.386;2023-07-31T08:48:44;24.00;99.90
14473;DHT22;7322;50.872;4.386;2023-07-31T08:51:13;24.10;99.90
14473;DHT22;7322;50.872;4.386;2023-07-31T08:53:44;24.10;99.90
14473;DHT22;7322;50.872;4.386;2023-07-31T08:56:18;24.10;99.90
14473;DHT22;7322;50.872;4.386;2023-07-31T08:58:52;24.20;99.90
14473;DHT22;7322;50.872;4.386;2023-07-31T09:01:21;24.10;99.90
14473;DHT22;7322;50.872;4.386;2023-07-31T09:03:52;24.10;99.90
14473;DHT22;7322;50.872;4.386;2023-07-31T09:06:28;24.10;99.90
14473;DHT22;7322;50.872;4.386;2023-07-31T09:09:03;24.20;99.90
14473;DHT22;7322;50.872;4.386;2023-07-31T09:11:33;24.20;99.90
14473;DHT22;7322;50.872;4.386;2023-07-31T09:14:05;24.10;99.90
14473;DHT22;7322;50.872;4.386;2023-07-31T09:16:51;24.20;99.90
14473;DHT22;7322;50.872;4.386;2023-07-31T09:19:25;24.20;99.90
14473;DHT22;7322;50.872;4.386;2023-07-31T09:22:06;24.20;99.90
14473;DHT22;7322;50.872;4.386;2023-07-31T09:24:34;24.20;99.90
14473;DHT22;7322;50.872;4.386;2023-07-31T09:27:10;24.20;99.90
14473;DHT22;7322;50.872;4.386;2023-07-31T09:29:45;24.20;99.90
14473;DHT22;7322;50.872;4.386;2023-07-31T09:32:31;24.20;99.90
14473;DHT22;7322;50.872;4.386;2023-07-31T09:35:01;24.30;99.90
14473;DHT22;7322;50.872;4.386;2023-07-31T09:37:40;24.30;99.90
14473;DHT22;7322;50.872;4.386;2023-07-31T09:40:25;24.20;99.90
14473;DHT22;7322;50.872;4.386;2023-07-31T09:42:53;24.20;99.90
14473;DHT22;7322;50.872;4.386;2023-07-31T09:45:26;24.20;99.90
14473;DHT22;7322;50.872;4.386;2023-07-31T09:47:56;24.20;99.90
14473;DHT22;7322;50.872;4.386;2023-07-31T09:50:33;24.30;99.90
14473;DHT22;7322;50.872;4.386;2023-07-31T09:53:00;24.30;99.90
14473;DHT22;7322;50.872;4.386;2023-07-31T09:55:27;24.30;99.90
14473;DHT22;7322;50.872;4.386;2023-07-31T09:57:57;24.30;99.90
14473;DHT22;7322;50.872;4.386;2023-07-31T10:00:35;24.30;99.90
14473;DHT22;7322;50.872;4.386;2023-07-31T10:03:11;24.30;99.90
14473;DHT22;7322;50.872;4.386;2023-07-31T10:05:45;24.40;99.90
14473;DHT22;7322;50.872;4.386;2023-07-31T10:08:23;24.30;99.90
14473;DHT22;7322;50.872;4.386;2023-07-31T10:10:59;24.30;99.90
14473;DHT22;7322;50.872;4.386;2023-07-31T10:13:30;24.20;99.90
14473;DHT22;7322;50.872;4.386;2023-07-31T10:15:59;24.20;99.90
14473;DHT22;7322;50.872;4.386;2023-07-31T10:18:34;24.20;99.90
14473;DHT22;7322;50.872;4.386;2023-07-31T10:21:36;24.30;99.90
14473;DHT22;7322;50.872;4.386;2023-07-31T10:24:06;24.30;99.90
14473;DHT22;7322;50.872;4.386;2023-07-31T10:26:41;24.20;99.90
14473;DHT22;7322;50.872;4.386;2023-07-31T10:29:16;24.30;99.90
14473;DHT22;7322;50.872;4.386;2023-07-31T10:31:47;24.30;99.90
14473;DHT22;7322;50.872;4.386;2023-07-31T10:34:23;24.20;99.90
14473;DHT22;7322;50.872;4.386;2023-07-31T10:37:24;24.30;99.90
14473;DHT22;7322;50.872;4.386;2023-07-31T10:40:00;24.40;99.90
14473;DHT22;7322;50.872;4.386;2023-07-31T10:42:36;24.30;99.90
14473;DHT22;7322;50.872;4.386;2023-07-31T10:45:34;24.40;99.90
14473;DHT22;7322;50.872;4.386;2023-07-31T10:48:13;24.50;99.90
14473;DHT22;7322;50.872;4.386;2023-07-31T10:50:47;24.50;99.90
14473;DHT22;7322;50.872;4.386;2023-07-31T10:53:24;24.50;99.90
14473;DHT22;7322;50.872;4.386;2023-07-31T10:55:58;24.60;99.90
14473;DHT22;7322;50.872;4.386;2023-07-31T10:58:44;24.60;99.90
14473;DHT22;7322;50.872;4.386;2023-07-31T11:01:12;24.50;99.90
14473;DHT22;7322;50.872;4.386;2023-07-31T11:03:46;24.50;99.90
14473;DHT22;7322;50.872;4.386;2023-07-31T11:06:19;24.50;99.90
14473;DHT22;7322;50.872;4.386;2023-07-31T11:08:49;24.50;99.90
14473;DHT22;7322;50.872;4.386;2023-07-31T11:11:18;24.60;99.90
14473;DHT22;7322;50.872;4.386;2023-07-31T11:13:55;24.60;99.90
14473;DHT22;7322;50.872;4.386;2023-07-31T11:16:25;24.60;99.90
14473;DHT22;7322;50.872;4.386;2023-07-31T11:18:54;24.60;99.90
14473;DHT22;7322;50.872;4.386;2023-07-31T11:21:24;24.60;99.90
14473;DHT22;7322;50.872;4.386;2023-07-31T11:24:09;24.60;99.90
14473;DHT22;7322;50.872;4.386;2023-07-31T11:26:48;24.50;99.90
14473;DHT22;7322;50.872;4.386;2023-07-31T11:29:20;24.50;99.90
14473;DHT22;7322;50.872;4.386;2023-07-31T11:31:58;24.50;99.90
14473;DHT22;7322;50.872;4.386;2023-07-31T11:34:32;24.60;99.90
14473;DHT22;7322;50.872;4.386;2023-07-31T11:37:00;24.50;99.90
14473;DHT22;7322;50.872;4.386;2023-07-31T11:39:28;24.50;99.90
14473;DHT22;7322;50.872;4.386;2023-07-31T11:42:11;24.50;99.90
14473;DHT22;7322;50.872;4.386;2023-07-31T11:45:02;24.50;99.90
14473;DHT22;7322;50.872;4.386;2023-07-31T11:47:30;24.50;99.90
14473;DHT22;7322;50.872;4.386;2023-07-31T11:50:01;24.50;99.90
14473;DHT22;7322;50.872;4.386;2023-07-31T11:52:36;24.60;99.90
14473;DHT22;7322;50.872;4.386;2023-07-31T11:55:08;24.60;99.90
14473;DHT22;7322;50.872;4.386;2023-07-31T11:57:41;24.60;99.90
14473;DHT22;7322;50.872;4.386;2023-07-31T12:00:12;24.60;99.90
14473;DHT22;7322;50.872;4.386;2023-07-31T12:02:42;24.50;99.90
14473;DHT22;7322;50.872;4.386;2023-07-31T12:05:11;24.60;99.90
14473;DHT22;7322;50.872;4.386;2023-07-31T12:07:53;24.60;99.90
14473;DHT22;7322;50.872;4.386;2023-07-31T12:10:38;24.60;99.90
14473;DHT22;7322;50.872;4.386;2023-07-31T12:13:11;24.60;99.90
14473;DHT22;7322;50.872;4.386;2023-07-31T12:15:42;24.60;99.90
14473;DHT22;7322;50.872;4.386;2023-07-31T12:18:11;24.70;99.90
14473;DHT22;7322;50.872;4.386;2023-07-31T12:20:45;24.60;99.90
14473;DHT22;7322;50.872;4.386;2023-07-31T12:23:16;24.50;99.90
14473;DHT22;7322;50.872;4.386;2023-07-31T12:26:07;24.50;99.90
14473;DHT22;7322;50.872;4.386;2023-07-31T12:28:36;24.50;99.90
14473;DHT22;7322;50.872;4.386;2023-07-31T12:31:11;24.50;99.90
14473;DHT22;7322;50.872;4.386;2023-07-31T12:33:41;24.50;99.90
14473;DHT22;7322;50.872;4.386;2023-07-31T12:36:15;24.60;99.90
14473;DHT22;7322;50.872;4.386;2023-07-31T12:38:50;24.60;99.90
14473;DHT22;7322;50.872;4.386;2023-07-31T12:41:26;24.60;99.90
14473;DHT22;7322;50.872;4.386;2023-07-31T12:44:10;24.70;99.90
14473;DHT22;7322;50.872;4.386;2023-07-31T12:46:39;24.60;99.90
14473;DHT22;7322;50.872;4.386;2023-07-31T12:49:15;24.50;99.90
14473;DHT22;7322;50.872;4.386;2023-07-31T12:51:48;24.60;99.90
14473;DHT22;7322;50.872;4.386;2023-07-31T12:54:17;24.70;99.90
14473;DHT22;7322;50.872;4.386;2023-07-31T12:56:55;24.60;99.90
14473;DHT22;7322;50.872;4.386;2023-07-31T12:59:35;24.70;99.90
14473;DHT22;7322;50.872;4.386;2023-07-31T13:02:10;24.70;99.90
14473;DHT22;7322;50.872;4.386;2023-07-31T13:04:38;24.70;99.90
14473;DHT22;7322;50.872;4.386;2023-07-31T13:07:06;24.60;99.90
14473;DHT22;7322;50.872;4.386;2023-07-31T13:09:52;24.70;99.90
14473;DHT22;7322;50.872;4.386;2023-07-31T13:12:33;24.70;99.90
14473;DHT22;7322;50.872;4.386;2023-07-31T13:15:14;24.70;99.90
14473;DHT22;7322;50.872;4.386;2023-07-31T13:17:59;24.70;99.90
14473;DHT22;7322;50.872;4.386;2023-07-31T13:20:29;24.60;99.90
14473;DHT22;7322;50.872;4.386;2023-07-31T13:23:02;24.60;99.90
14473;DHT22;7322;50.872;4.386;2023-07-31T13:25:41;24.50;99.90
14473;DHT22;7322;50.872;4.386;2023-07-31T13:28:12;24.50;99.90
14473;DHT22;7322;50.872;4.386;2023-07-31T13:30:40;24.50;99.90
14473;DHT22;7322;50.872;4.386;2023-07-31T13:33:09;24.50;99.90
14473;DHT22;7322;50.872;4.386;2023-07-31T13:35:42;24.50;99.90
14473;DHT22;7322;50.872;4.386;2023-07-31T13:38:10;24.50;99.90
14473;DHT22;7322;50.872;4.386;2023-07-31T13:40:40;24.50;99.90
14473;DHT22;7322;50.872;4.386;2023-07-31T13:43:16;24.50;99.90
14473;DHT22;7322;50.872;4.386;2023-07-31T13:45:50;24.50;99.90
14473;DHT22;7322;50.872;4.386;2023-07-31T13:48:27;24.50;99.90
14473;DHT22;7322;50.872;4.386;2023-07-31T13:51:00;24.40;99.90
14473;DHT22;7322;50.872;4.386;2023-07-31T13:53:45;24.30;99.90
14473;DHT22;7322;50.872;4.386;2023-07-31T13:56:15;24.30;99.90
14473;DHT22;7322;50.872;4.386;2023-07-31T13:58:51;24.30;99.90
14473;DHT22;7322;50.872;4.386;2023-07-31T14:01:20;24.30;99.90
14473;DHT22;7322;50.872;4.386;2023-07-31T14:03:52;24.30;99.90
14473;DHT22;7322;50.872;4.386;2023-07-31T14:06:20;24.20;99.90
14473;DHT22;7322;50.872;4.386;2023-07-31T14:09:02;24.20;99.90
14473;DHT22;7322;50.872;4.386;2023-07-31T14:11:30;24.30;99.90
14473;DHT22;7322;50.872;4.386;2023-07-31T14:13:59;24.20;99.90
14473;DHT22;7322;50.872;4.386;2023-07-31T14:16:27;24.20;99.90
14473;DHT22;7322;50.872;4.386;2023-07-31T14:18:54;24.20;99.90
14473;DHT22;7322;50.872;4.386;2023-07-31T14:21:21;24.20;99.90
14473;DHT22;7322;50.872;4.386;2023-07-31T14:23:48;24.30;99.90
14473;DHT22;7322;50.872;4.386;2023-07-31T14:26:17;24.30;99.90
14473;DHT22;7322;50.872;4.386;2023-07-31T14:29:04;24.30;99.90
14473;DHT22;7322;50.872;4.386;2023-07-31T14:31:40;24.30;99.90
14473;DHT22;7322;50.872;4.386;2023-07-31T14:34:15;24.30;99.90
14473;DHT22;7322;50.872;4.386;2023-07-31T14:36:48;24.30;99.90
14473;DHT22;7322;50.872;4.386;2023-07-31T14:39:15;24.30;99.90
14473;DHT22;7322;50.872;4.386;2023-07-31T14:42:00;24.30;99.90
14473;DHT22;7322;50.872;4.386;2023-07-31T14:44:29;24.40;99.90
14473;DHT22;7322;50.872;4.386;2023-07-31T14:46:56;24.40;99.90
14473;DHT22;7322;50.872;4.386;2023-07-31T14:49:33;24.40;99.90
14473;DHT22;7322;50.872;4.386;2023-07-31T14:52:02;24.50;99.90
14473;DHT22;7322;50.872;4.386;2023-07-31T14:54:36;24.50;99.90
14473;DHT22;7322;50.872;4.386;2023-07-31T14:57:03;24.50;99.90
14473;DHT22;7322;50.872;4.386;2023-07-31T14:59:42;24.40;99.90
14473;DHT22;7322;50.872;4.386;2023-07-31T15:02:11;24.40;99.90
14473;DHT22;7322;50.872;4.386;2023-07-31T15:04:40;24.40;99.90
14473;DHT22;7322;50.872;4.386;2023-07-31T15:07:21;24.40;99.90
14473;DHT22;7322;50.872;4.386;2023-07-31T15:09:49;24.50;99.90
14473;DHT22;7322;50.872;4.386;2023-07-31T15:12:16;24.50;99.90
14473;DHT22;7322;50.872;4.386;2023-07-31T15:14:45;24.40;99.90
14473;DHT22;7322;50.872;4.386;2023-07-31T15:17:12;24.50;99.90
14473;DHT22;7322;50.872;4.386;2023-07-31T15:19:40;24.40;99.90
14473;DHT22;7322;50.872;4.386;2023-07-31T15:22:27;24.30;99.90
14473;DHT22;7322;50.872;4.386;2023-07-31T15:25:07;24.50;99.90
14473;DHT22;7322;50.872;4.386;2023-07-31T15:27:42;24.50;99.90
14473;DHT22;7322;50.872;4.386;2023-07-31T15:30:12;24.50;99.90
14473;DHT22;7322;50.872;4.386;2023-07-31T15:32:40;24.50;99.90
14473;DHT22;7322;50.872;4.386;2023-07-31T15:35:21;24.40;99.90
14473;DHT22;7322;50.872;4.386;2023-07-31T15:37:48;24.50;99.90
14473;DHT22;7322;50.872;4.386;2023-07-31T15:40:17;24.40;99.90
14473;DHT22;7322;50.872;4.386;2023-07-31T15:42:45;24.40;99.90
14473;DHT22;7322;50.872;4.386;2023-07-31T15:45:15;24.30;99.90
14473;DHT22;7322;50.872;4.386;2023-07-31T15:47:44;24.40;99.90
14473;DHT22;7322;50.872;4.386;2023-07-31T15:50:13;24.30;99.90
14473;DHT22;7322;50.872;4.386;2023-07-31T15:52:40;24.40;99.90
14473;DHT22;7322;50.872;4.386;2023-07-31T15:55:26;24.40;99.90
14473;DHT22;7322;50.872;4.386;2023-07-31T15:58:01;24.40;99.90
14473;DHT22;7322;50.872;4.386;2023-07-31T16:00:42;24.40;99.90
14473;DHT22;7322;50.872;4.386;2023-07-31T16:03:10;24.40;99.90
14473;DHT22;7322;50.872;4.386;2023-07-31T16:05:39;24.40;99.90
14473;DHT22;7322;50.872;4.386;2023-07-31T16:08:07;24.30;99.90
14473;DHT22;7322;50.872;4.386;2023-07-31T16:10:40;24.30;99.90
14473;DHT22;7322;50.872;4.386;2023-07-31T16:13:10;24.30;99.90
14473;DHT22;7322;50.872;4.386;2023-07-31T16:15:46;24.30;99.90
14473;DHT22;7322;50.872;4.386;2023-07-31T16:18:19;24.30;99.90
14473;DHT22;7322;50.872;4.386;2023-07-31T16:20:52;24.30;99.90
14473;DHT22;7322;50.872;4.386;2023-07-31T16:23:22;24.30;99.90
14473;DHT22;7322;50.872;4.386;2023-07-31T16:25:50;24.30;99.90
14473;DHT22;7322;50.872;4.386;2023-07-31T16:28:17;24.20;99.90
14473;DHT22;7322;50.872;4.386;2023-07-31T16:30:46;24.20;99.90
14473;DHT22;7322;50.872;4.386;2023-07-31T16:33:32;24.30;99.90
14473;DHT22;7322;50.872;4.386;2023-07-31T16:36:11;24.30;99.90
14473;DHT22;7322;50.872;4.386;2023-07-31T16:38:40;24.20;99.90